Time;durP1;ratioP1;P1;durP2;ratioP2;P2;SDS_P1;SDS_P2;PMS_P1;PMS_P2;Temp;Humidity;BMP_temperature;BMP_pressure;BME280_temperature;BME280_humidity;BME280_pressure;Samples;Min_cycle;Max_cycle;Signal;HPM_P1;HPM_P2
2022/03/18 00:00:52;;;;;;;13.20;10.00;;;;;;;2.47;98.10;96428.88;5055362;28;20429;-79
2022/03/18 00:03:18;;;;;;;15.30;11.07;;;;;;;2.63;98.14;96431.88;5055385;28;20476;-78
2022/03/18 00:05:45;;;;;;;12.03;9.43;;;;;;;2.63;98.08;96441.41;5055422;28;20426;-79
2022/03/18 00:08:12;;;;;;;13.37;10.83;;;;;;;2.66;98.05;96436.97;5019146;28;20450;-78
2022/03/18 00:10:39;;;;;;;15.83;11.97;;;;;;;2.75;97.84;96434.09;5055231;28;20540;-78
2022/03/18 00:13:06;;;;;;;13.53;11.27;;;;;;;2.67;98.23;96440.41;5054911;28;20878;-78
2022/03/18 00:15:35;;;;;;;11.02;9.65;;;;;;;2.59;98.43;96439.75;5055662;28;20835;-79
2022/03/18 00:18:02;;;;;;;10.47;9.40;;;;;;;2.55;98.31;96444.19;5054886;28;20208;-78
2022/03/18 00:20:28;;;;;;;14.23;11.40;;;;;;;2.64;98.07;96443.09;5055045;28;20461;-79
2022/03/18 00:22:55;;;;;;;13.40;10.53;;;;;;;2.66;97.68;96444.75;5054916;28;20445;-78
2022/03/18 00:25:22;;;;;;;11.50;9.50;;;;;;;2.52;97.90;96441.69;5054785;28;20953;-79
2022/03/18 00:27:49;;;;;;;13.93;10.50;;;;;;;2.72;97.54;96449.75;5054966;28;20870;-78
2022/03/18 00:30:17;;;;;;;12.77;11.00;;;;;;;2.84;97.36;96443.34;5054803;28;20456;-78
2022/03/18 00:32:49;;;;;;;14.00;10.07;;;;;;;3.03;97.02;96452.28;5054645;28;20889;-79
2022/03/18 00:35:16;;;;;;;10.00;8.97;;;;;;;2.93;96.01;96456.06;5054684;28;21029;-78
2022/03/18 00:37:43;;;;;;;10.70;9.00;;;;;;;2.95;95.73;96453.41;5054392;28;20460;-78
2022/03/18 00:40:11;;;;;;;9.67;8.70;;;;;;;2.68;95.84;96455.91;5054713;28;20466;-77
2022/03/18 00:42:37;;;;;;;11.33;8.60;;;;;;;2.75;96.37;96451.41;5054351;28;20433;-78
2022/03/18 00:45:05;;;;;;;10.67;8.50;;;;;;;2.75;95.81;96456.56;5054260;28;20438;-78
2022/03/18 00:53:40;;;;;;;14.10;9.57;;;;;;;2.95;95.47;96474.16;5024964;28;20786;-78
2022/03/18 00:56:07;;;;;;;12.03;9.53;;;;;;;2.93;95.19;96474.19;5054113;28;20441;-78
2022/03/18 00:58:34;;;;;;;10.10;8.60;;;;;;;2.99;94.34;96479.19;5053420;28;20486;-79
2022/03/18 01:01:01;;;;;;;12.17;9.80;;;;;;;3.02;94.20;96476.50;5052902;28;20448;-79
2022/03/18 01:03:28;;;;;;;11.80;9.37;;;;;;;2.96;94.57;96470.66;5052997;28;20457;-78
2022/03/18 01:05:56;;;;;;;11.20;9.47;;;;;;;3.09;93.63;96472.81;5018476;28;20457;-79
2022/03/18 01:08:23;;;;;;;10.53;9.40;;;;;;;3.09;93.60;96482.34;5053862;28;20449;-79
2022/03/18 01:10:53;;;;;;;10.13;9.00;;;;;;;2.99;93.55;96483.53;5053550;28;20442;-78
2022/03/18 01:13:20;;;;;;;10.67;9.57;;;;;;;3.02;93.96;96491.22;5052949;28;20829;-78
2022/03/18 01:15:47;;;;;;;10.57;9.47;;;;;;;3.09;93.87;96488.38;5053386;28;20905;-79
2022/03/18 01:18:14;;;;;;;10.83;9.80;;;;;;;2.89;94.42;96474.31;5018753;28;20450;-77
2022/03/18 01:20:41;;;;;;;9.83;8.83;;;;;;;2.73;95.43;96477.34;5053167;28;20825;-79
2022/03/18 01:23:11;;;;;;;11.70;9.87;;;;;;;2.42;97.06;96472.19;5053943;28;20446;-79
2022/03/18 01:25:38;;;;;;;9.17;8.27;;;;;;;2.30;97.76;96474.25;5054078;28;20788;-78
2022/03/18 01:28:06;;;;;;;9.80;8.77;;;;;;;2.28;97.71;96476.88;5053605;28;20532;-79
2022/03/18 01:30:33;;;;;;;13.37;9.63;;;;;;;2.16;98.84;96477.22;5053396;28;20879;-78
2022/03/18 01:33:00;;;;;;;10.67;9.50;;;;;;;2.22;98.79;96476.19;5053621;28;20541;-79
2022/03/18 01:35:27;;;;;;;9.80;8.40;;;;;;;2.27;98.26;96469.16;5053251;28;20473;-78
2022/03/18 01:37:54;;;;;;;12.37;11.03;;;;;;;2.18;98.62;96462.50;5054405;28;20457;-78
2022/03/18 01:40:23;;;;;;;11.43;10.07;;;;;;;2.18;98.56;96467.66;5053573;28;20481;-78
2022/03/18 01:42:50;;;;;;;11.20;9.93;;;;;;;2.20;99.02;96468.47;5018860;28;20440;-79
2022/03/18 01:45:17;;;;;;;11.47;9.57;;;;;;;2.14;99.20;96466.06;5053577;28;20649;-79
2022/03/18 01:47:44;;;;;;;12.82;8.90;;;;;;;2.01;99.62;96464.66;5018646;28;20448;-79
2022/03/18 01:50:11;;;;;;;10.60;9.52;;;;;;;1.88;100.00;96471.06;5053071;28;20212;-79
2022/03/18 01:52:39;;;;;;;11.10;9.90;;;;;;;1.88;100.00;96476.22;5053714;28;20206;-79
2022/03/18 01:55:06;;;;;;;16.50;10.77;;;;;;;1.81;100.00;96478.97;5053619;28;20200;-79
2022/03/18 01:57:35;;;;;;;15.35;11.48;;;;;;;1.93;100.00;96482.13;5053129;28;20200;-78
2022/03/18 02:00:05;;;;;;;13.68;11.35;;;;;;;1.90;100.00;96466.69;5053400;28;20706;-78
2022/03/18 02:02:32;;;;;;;15.18;11.55;;;;;;;2.00;100.00;96475.91;5018558;28;20687;-78
2022/03/18 02:04:59;;;;;;;11.30;9.90;;;;;;;1.83;99.57;96482.38;5053695;28;20217;-78
2022/03/18 02:07:26;;;;;;;13.50;10.23;;;;;;;1.84;100.00;96486.66;5053099;28;20190;-79
2022/03/18 02:09:53;;;;;;;13.05;10.82;;;;;;;1.91;99.53;96486.50;5018627;28;20206;-78
2022/03/18 02:12:20;;;;;;;12.73;11.10;;;;;;;1.84;99.50;96489.25;5053041;28;20196;-79
2022/03/18 02:14:49;;;;;;;12.88;11.60;;;;;;;1.98;99.36;96490.63;5053127;28;20214;-79
2022/03/18 02:17:18;;;;;;;16.47;12.03;;;;;;;1.91;99.05;96486.50;5053525;28;20205;-79
2022/03/18 02:19:46;;;;;;;14.80;11.95;;;;;;;1.83;99.45;96479.78;5053119;28;20485;-78
2022/03/18 02:22:15;;;;;;;13.50;11.75;;;;;;;1.75;99.19;96481.72;5052872;28;20212;-79
2022/03/18 02:24:45;;;;;;;16.38;12.57;;;;;;;1.64;100.00;96483.72;5052945;28;20199;-78
2022/03/18 02:27:13;;;;;;;20.90;13.18;;;;;;;1.69;100.00;96486.19;5052775;28;20259;-78
2022/03/18 02:29:41;;;;;;;15.77;13.77;;;;;;;1.74;100.00;96489.53;5053170;28;20217;-78
2022/03/18 02:32:08;;;;;;;17.45;13.20;;;;;;;1.71;100.00;96490.44;5054796;28;20201;-78
2022/03/18 02:34:37;;;;;;;19.55;14.45;;;;;;;1.72;99.74;96493.88;5056712;28;20566;-79
2022/03/18 02:37:04;;;;;;;19.10;13.68;;;;;;;1.62;99.87;96492.41;5056822;28;20193;-78
2022/03/18 02:39:32;;;;;;;21.20;13.63;;;;;;;1.57;99.58;96496.84;5056583;28;20219;-79
2022/03/18 02:42:01;;;;;;;18.30;14.57;;;;;;;1.68;99.66;96503.44;5056720;28;20206;-79
2022/03/18 02:44:28;;;;;;;20.67;15.80;;;;;;;1.79;99.45;96504.06;5056936;28;20553;-78
2022/03/18 02:46:55;;;;;;;22.33;14.55;;;;;;;1.50;100.00;96507.34;5038366;28;20196;-78
2022/03/18 02:49:24;;;;;;;21.63;15.73;;;;;;;1.40;100.00;96507.56;5056475;28;20281;-79
2022/03/18 02:51:51;;;;;;;23.55;16.15;;;;;;;1.43;100.00;96520.41;5057149;28;20241;-78
2022/03/18 02:54:18;;;;;;;20.58;16.20;;;;;;;1.63;100.00;96507.03;5057339;28;20198;-79
2022/03/18 02:56:45;;;;;;;21.27;16.42;;;;;;;1.78;99.55;96517.88;5056387;28;20191;-78
2022/03/18 02:59:13;;;;;;;20.23;15.32;;;;;;;1.91;99.11;96514.97;5056203;28;20230;-79
2022/03/18 03:01:40;;;;;;;23.02;17.35;;;;;;;2.05;98.48;96525.84;5021523;28;20206;-79
2022/03/18 03:04:07;;;;;;;23.75;17.38;;;;;;;2.15;97.87;96535.06;5056838;28;20638;-79
2022/03/18 03:09:19;;;;;;;22.55;17.00;;;;;;;2.34;95.92;96533.72;5056387;28;20193;-80
2022/03/18 03:11:46;;;;;;;18.33;16.13;;;;;;;2.42;95.67;96542.13;5056067;28;20742;-79
2022/03/18 03:20:58;;;;;;;20.50;15.23;;;;;;;2.36;95.51;96550.06;5055845;28;20488;-78
2022/03/18 03:23:25;;;;;;;16.80;14.20;;;;;;;2.31;95.23;96544.13;5055870;28;20940;-78
2022/03/18 03:25:53;;;;;;;20.23;15.15;;;;;;;2.28;95.09;96549.41;5056191;28;20448;-78
2022/03/18 03:28:19;;;;;;;19.05;15.15;;;;;;;2.22;94.93;96549.56;5056061;28;20422;-79
2022/03/18 03:30:46;;;;;;;19.60;14.80;;;;;;;2.07;94.57;96550.81;5056064;28;20191;-79
2022/03/18 03:33:13;;;;;;;19.47;14.63;;;;;;;2.02;94.22;96549.19;5055889;28;20441;-79
2022/03/18 03:39:03;;;;;;;16.10;13.70;;;;;;;1.62;96.76;96563.09;5054631;28;20240;-79
2022/03/18 03:41:30;;;;;;;17.27;14.38;;;;;;;1.47;97.68;96563.47;5055826;28;20200;-79
2022/03/18 03:43:57;;;;;;;21.40;13.32;;;;;;;1.25;98.14;96560.50;5020619;28;20202;-79
2022/03/18 03:46:24;;;;;;;21.55;14.15;;;;;;;1.48;97.89;96560.84;5055426;28;20189;-78
2022/03/18 03:52:13;;;;;;;17.75;14.30;;;;;;;1.60;97.37;96577.81;5054558;28;20599;-78
2022/03/18 03:54:41;;;;;;;14.93;12.38;;;;;;;1.60;96.33;96576.97;5055217;28;20697;-78
2022/03/18 03:57:09;;;;;;;18.63;12.70;;;;;;;1.70;96.17;96578.44;5055199;28;20563;-78
2022/03/18 03:59:36;;;;;;;19.92;13.52;;;;;;;1.62;94.98;96570.00;5055465;28;20219;-78
2022/03/18 04:02:04;;;;;;;19.60;14.43;;;;;;;1.78;95.48;96577.41;5055165;28;20213;-78
2022/03/18 04:07:52;;;;;;;19.20;15.05;;;;;;;2.07;92.85;96586.22;5055193;28;20229;-78
2022/03/18 04:10:20;;;;;;;25.92;14.80;;;;;;;2.20;92.27;96584.16;5055030;28;20194;-79
2022/03/18 04:12:47;;;;;;;16.08;13.32;;;;;;;2.35;91.49;96592.41;5055275;28;20235;-78
2022/03/18 04:15:14;;;;;;;21.42;14.85;;;;;;;2.49;90.56;96603.25;5020080;28;20225;-78
2022/03/18 04:17:43;;;;;;;14.88;12.52;;;;;;;2.60;90.02;96605.59;5055731;28;20195;-78
2022/03/18 04:20:12;;;;;;;19.43;12.47;;;;;;;2.56;86.92;96610.84;5054764;28;20288;-78
2022/03/18 04:26:02;;;;;;;16.42;12.63;;;;;;;2.30;86.63;96612.38;5054848;28;20416;-79
2022/03/18 04:28:29;;;;;;;18.60;14.07;;;;;;;2.46;85.98;96613.69;5055306;28;20225;-78
2022/03/18 04:30:56;;;;;;;14.10;11.53;;;;;;;2.48;85.66;96619.69;5055049;28;20445;-78
2022/03/18 04:33:22;;;;;;;19.35;12.15;;;;;;;2.30;85.29;96620.13;5020268;28;20445;-78
2022/03/18 04:35:51;;;;;;;10.70;9.60;;;;;;;2.30;85.19;96617.53;5055118;28;20244;-79
2022/03/18 04:38:18;;;;;;;19.33;10.25;;;;;;;2.29;85.02;96622.75;5054541;28;20285;-78
2022/03/18 04:40:45;;;;;;;14.70;10.57;;;;;;;2.28;84.98;96621.06;5054612;28;20232;-78
2022/03/18 04:43:13;;;;;;;12.35;10.10;;;;;;;2.29;84.95;96621.03;5054853;28;20211;-78
2022/03/18 04:45:40;;;;;;;14.63;10.13;;;;;;;2.31;84.97;96627.00;5055233;28;20198;-79
2022/03/18 04:48:07;;;;;;;12.50;10.10;;;;;;;2.24;84.81;96632.38;5054311;28;20186;-78
2022/03/18 04:50:34;;;;;;;19.00;10.68;;;;;;;2.29;84.37;96625.34;5054354;28;20209;-78
2022/03/18 04:53:01;;;;;;;11.55;10.35;;;;;;;2.31;84.75;96629.59;5054197;28;20207;-78
2022/03/18 04:55:28;;;;;;;13.07;10.50;;;;;;;2.37;84.46;96633.81;5053742;28;20573;-78
2022/03/18 04:57:54;;;;;;;16.75;12.40;;;;;;;2.43;84.55;96641.41;5054594;28;20433;-79
2022/03/18 05:00:24;;;;;;;15.15;11.50;;;;;;;2.42;84.29;96643.16;5054511;28;20222;-78
2022/03/18 05:02:52;;;;;;;17.27;13.18;;;;;;;2.32;84.09;96646.03;5054279;28;20206;-79
2022/03/18 05:05:20;;;;;;;13.70;10.25;;;;;;;2.28;83.74;96658.16;5054214;28;20279;-78
2022/03/18 05:07:50;;;;;;;17.07;11.13;;;;;;;2.35;83.21;96651.97;5053740;28;20236;-79
2022/03/18 05:10:19;;;;;;;11.20;9.57;;;;;;;2.29;83.55;96644.34;5035118;28;20448;-78
2022/03/18 05:12:46;;;;;;;11.47;9.53;;;;;;;2.24;82.48;96656.53;5053676;28;20453;-78
2022/03/18 05:15:14;;;;;;;15.50;11.43;;;;;;;2.23;82.98;96656.59;5035189;28;20517;-78
2022/03/18 05:17:50;;;;;;;14.00;9.68;;;;;;;2.34;82.51;96658.06;5053829;28;20484;-77
2022/03/18 05:20:16;;;;;;;8.50;7.60;;;;;;;2.47;81.29;96669.81;5053833;28;20222;-78
2022/03/18 05:22:45;;;;;;;10.50;8.40;;;;;;;2.66;81.31;96656.41;5053565;28;20187;-80
2022/03/18 05:25:12;;;;;;;11.32;8.90;;;;;;;2.70;79.50;96660.59;5053686;28;20445;-78
2022/03/18 05:27:41;;;;;;;13.87;9.00;;;;;;;2.84;79.64;96655.06;5053525;28;20282;-78
2022/03/18 05:30:10;;;;;;;11.13;8.00;;;;;;;2.87;78.44;96652.38;5035815;28;20524;-79
2022/03/18 05:32:37;;;;;;;10.40;8.37;;;;;;;2.95;78.65;96658.22;5053394;28;20442;-79
2022/03/18 05:35:06;;;;;;;14.20;7.47;;;;;;;3.21;78.26;96658.38;5053912;28;20473;-80
2022/03/18 05:37:33;;;;;;;8.27;7.40;;;;;;;3.41;77.11;96666.44;5035372;28;20441;-79
2022/03/18 05:46:43;;;;;;;9.20;7.63;;;;;;;3.83;75.14;96665.25;5032339;28;20426;-81
2022/03/18 05:49:10;;;;;;;10.73;7.60;;;;;;;4.23;74.20;96678.72;5033686;28;20453;-78
2022/03/18 05:51:38;;;;;;;7.40;6.70;;;;;;;4.42;71.60;96689.38;5015237;28;20447;-78
2022/03/18 05:54:05;;;;;;;12.47;8.73;;;;;;;4.56;71.14;96684.59;5033927;28;20435;-78
2022/03/18 05:59:17;;;;;;;10.73;7.73;;;;;;;4.97;69.88;96698.84;5033203;28;20516;-79
2022/03/18 06:01:44;;;;;;;8.60;7.70;;;;;;;5.22;68.38;96682.38;5034135;28;20565;-79
2022/03/18 06:04:13;;;;;;;6.83;6.23;;;;;;;5.52;67.18;96686.50;5033169;28;20482;-79
2022/03/18 06:06:42;;;;;;;8.93;7.40;;;;;;;5.45;65.71;96691.97;5035770;28;20955;-80
2022/03/18 06:11:54;;;;;;;17.27;9.23;;;;;;;5.35;65.92;96704.47;5037524;28;20481;-80
2022/03/18 06:14:23;;;;;;;10.47;7.23;;;;;;;5.27;65.94;96712.53;5037107;28;20525;-79
2022/03/18 06:16:51;;;;;;;9.47;6.77;;;;;;;5.19;66.06;96709.34;5037262;28;20493;-78
2022/03/18 06:19:20;;;;;;;10.60;7.70;;;;;;;4.67;66.23;96725.84;5037685;28;20432;-78
2022/03/18 06:21:48;;;;;;;12.73;7.73;;;;;;;4.50;67.44;96726.38;5037272;28;20500;-78
2022/03/18 06:24:16;;;;;;;12.83;8.00;;;;;;;4.27;68.37;96727.09;5037009;28;20439;-79
2022/03/18 06:26:43;;;;;;;8.27;7.50;;;;;;;4.12;69.24;96714.56;5037475;28;20443;-78
2022/03/18 06:29:11;;;;;;;7.90;7.10;;;;;;;4.23;68.79;96725.47;5036959;28;20812;-79
2022/03/18 06:31:39;;;;;;;9.40;7.50;;;;;;;4.28;68.89;96722.72;5036934;28;20458;-79
2022/03/18 06:34:06;;;;;;;19.60;10.73;;;;;;;4.16;68.58;96734.38;5036519;28;20447;-80
2022/03/18 06:36:33;;;;;;;19.23;11.53;;;;;;;3.95;67.66;96745.38;5035671;28;20447;-79
2022/03/18 06:39:02;;;;;;;15.67;9.33;;;;;;;3.84;66.29;96745.69;5035709;28;20568;-79
2022/03/18 06:41:29;;;;;;;8.83;7.93;;;;;;;3.73;65.98;96739.94;5035257;28;20482;-80
2022/03/18 06:43:58;;;;;;;9.17;8.27;;;;;;;3.34;69.65;96750.53;5035533;28;20946;-79
2022/03/18 06:46:25;;;;;;;11.67;9.40;;;;;;;3.33;71.25;96755.75;5017304;28;20453;-79
2022/03/18 06:48:53;;;;;;;9.57;7.83;;;;;;;3.34;71.69;96754.88;5035481;28;20446;-80
2022/03/18 06:51:21;;;;;;;9.50;8.23;;;;;;;3.58;71.41;96756.81;5036420;28;20937;-80
2022/03/18 06:53:48;;;;;;;9.47;8.47;;;;;;;3.78;69.93;96758.88;5036784;28;20526;-79
2022/03/18 06:56:16;;;;;;;9.80;8.80;;;;;;;3.93;69.84;96760.16;5035830;28;20441;-79
2022/03/18 06:58:43;;;;;;;9.30;7.17;;;;;;;3.39;70.70;96760.78;5036292;28;20211;-79
2022/03/18 07:01:10;;;;;;;9.73;8.40;;;;;;;3.52;70.53;96767.38;5036495;28;20856;-79
2022/03/18 07:03:37;;;;;;;10.03;7.37;;;;;;;3.49;71.03;96766.59;5036628;28;20466;-79
2022/03/18 07:06:06;;;;;;;8.00;7.10;;;;;;;3.33;70.68;96768.75;5036585;28;20434;-80
2022/03/18 07:08:33;;;;;;;8.73;7.20;;;;;;;2.96;66.80;96774.88;5036388;28;20508;-81
2022/03/18 07:11:00;;;;;;;10.23;8.13;;;;;;;3.30;67.94;96786.97;5036553;28;20538;-79
2022/03/18 07:13:28;;;;;;;6.97;6.30;;;;;;;3.18;67.73;96790.75;5001616;28;20446;-79
2022/03/18 07:15:55;;;;;;;8.83;7.70;;;;;;;3.45;64.94;96786.56;5017804;28;20524;-79
2022/03/18 07:18:21;;;;;;;8.33;7.27;;;;;;;3.97;66.15;96778.19;5035375;28;20562;-79
2022/03/18 07:20:48;;;;;;;10.00;6.33;;;;;;;3.70;64.67;96787.59;5035883;28;20471;-79
2022/03/18 07:23:16;;;;;;;10.53;6.93;;;;;;;3.79;63.68;96790.88;5036299;28;20818;-81
2022/03/18 07:25:44;;;;;;;9.73;8.50;;;;;;;3.93;63.56;96794.78;5036264;28;20925;-79
2022/03/18 07:28:13;;;;;;;7.53;6.60;;;;;;;4.35;62.56;96787.50;5035788;28;20485;-78
2022/03/18 07:30:44;;;;;;;9.73;5.20;;;;;;;4.04;61.67;96799.66;5036024;28;20463;-78
2022/03/18 07:33:12;;;;;;;6.60;5.90;;;;;;;3.95;62.29;96794.72;5035768;28;20978;-80
2022/03/18 07:35:39;;;;;;;8.43;6.50;;;;;;;4.29;61.03;96792.00;5036330;28;20463;-78
2022/03/18 07:38:09;;;;;;;7.47;6.37;;;;;;;4.42;60.99;96797.69;5035666;28;20918;-80
2022/03/18 07:40:36;;;;;;;6.87;5.67;;;;;;;4.63;60.20;96810.06;5035781;28;20474;-80
2022/03/18 07:43:05;;;;;;;6.73;6.03;;;;;;;4.54;57.59;96803.34;5017817;28;20446;-80
2022/03/18 07:45:33;;;;;;;8.80;6.50;;;;;;;4.73;57.25;96813.22;5035494;28;20439;-79
2022/03/18 07:48:04;;;;;;;6.57;5.60;;;;;;;4.15;56.75;96810.59;5036172;28;20438;-80
2022/03/18 07:50:32;;;;;;;8.10;4.10;;;;;;;4.11;57.83;96816.78;5035465;28;20443;-79
2022/03/18 07:53:04;;;;;;;7.23;5.53;;;;;;;4.15;59.03;96809.75;5035724;28;20431;-79
2022/03/18 07:55:33;;;;;;;6.87;6.17;;;;;;;4.30;58.29;96809.28;5035596;28;20453;-79
2022/03/18 07:58:00;;;;;;;6.57;5.97;;;;;;;4.76;58.15;96810.50;5035775;28;20457;-78
2022/03/18 08:00:27;;;;;;;7.53;5.97;;;;;;;4.81;57.82;96811.22;5035463;28;20474;-77
2022/03/18 08:02:55;;;;;;;7.93;6.57;;;;;;;4.93;57.24;96806.50;4968565;28;20450;-78
2022/03/18 08:05:24;;;;;;;8.07;7.00;;;;;;;4.95;57.10;96809.88;5035172;28;20441;-79
2022/03/18 08:07:52;;;;;;;16.70;6.73;;;;;;;5.15;55.67;96829.19;5035556;28;20525;-79
2022/03/18 08:10:19;;;;;;;7.97;6.77;;;;;;;5.53;53.85;96818.38;5035030;28;20454;-78
2022/03/18 08:12:47;;;;;;;9.20;7.10;;;;;;;5.41;52.58;96836.16;5035703;28;20493;-79
2022/03/18 08:15:16;;;;;;;7.47;6.53;;;;;;;5.52;53.71;96819.28;5016796;28;20518;-78
2022/03/18 08:17:44;;;;;;;11.37;6.00;;;;;;;5.66;52.84;96813.59;5034911;28;20430;-79
2022/03/18 08:20:13;;;;;;;10.90;6.00;;;;;;;5.66;51.45;96820.56;5016526;28;20435;-79
2022/03/18 08:22:42;;;;;;;7.47;6.50;;;;;;;5.80;53.28;96813.97;5034798;28;20423;-79
2022/03/18 08:31:53;;;;;;;8.07;6.67;;;;;;;5.28;55.34;96807.09;5033649;28;20465;-79
2022/03/18 08:34:20;;;;;;;11.67;6.77;;;;;;;5.44;55.37;96804.81;5034869;28;20446;-79
2022/03/18 08:36:47;;;;;;;7.70;6.90;;;;;;;5.34;54.36;96812.09;5034745;28;20455;-79
2022/03/18 08:39:16;;;;;;;7.33;6.60;;;;;;;5.13;53.41;96813.63;5034330;28;20437;-80
2022/03/18 08:41:43;;;;;;;10.07;6.30;;;;;;;5.45;54.72;96807.34;5034398;28;20477;-79
2022/03/18 08:44:10;;;;;;;11.47;6.90;;;;;;;5.31;53.16;96800.94;5034613;28;20441;-79
2022/03/18 08:46:37;;;;;;;8.83;7.03;;;;;;;5.23;55.45;96803.78;5016298;28;20942;-79
2022/03/18 08:49:04;;;;;;;10.27;7.00;;;;;;;5.35;57.89;96799.91;4999841;28;20423;-80
2022/03/18 08:51:31;;;;;;;8.63;7.83;;;;;;;5.56;56.23;96797.44;5034702;28;20481;-79
2022/03/18 08:53:58;;;;;;;11.20;7.70;;;;;;;5.64;56.31;96796.31;5034808;28;20537;-77
2022/03/18 08:56:26;;;;;;;6.73;5.97;;;;;;;5.97;54.15;96792.53;5034590;28;20518;-79
2022/03/18 08:58:53;;;;;;;10.17;7.07;;;;;;;5.64;55.92;96796.31;5034072;28;20439;-78
2022/03/18 09:01:20;;;;;;;13.20;6.70;;;;;;;4.96;54.91;96795.13;4999734;28;20485;-80
2022/03/18 09:03:47;;;;;;;14.13;6.40;;;;;;;4.97;54.53;96795.09;5034637;28;20880;-79
2022/03/18 09:06:15;;;;;;;6.50;5.90;;;;;;;5.49;54.11;96789.88;5034647;28;20434;-80
2022/03/18 09:08:42;;;;;;;7.23;6.53;;;;;;;5.71;50.79;96797.81;5034138;28;20796;-81
2022/03/18 09:11:09;;;;;;;9.40;7.20;;;;;;;5.43;47.92;96796.16;5015483;28;20521;-78
2022/03/18 09:13:37;;;;;;;8.67;7.23;;;;;;;5.65;49.13;96785.00;5033816;28;20457;-78
2022/03/18 09:16:05;;;;;;;6.70;5.90;;;;;;;5.95;48.50;96788.28;5034169;28;20438;-78
2022/03/18 09:18:32;;;;;;;7.97;7.17;;;;;;;5.98;48.65;96790.78;5032091;28;20805;-78
2022/03/18 09:20:59;;;;;;;12.07;8.53;;;;;;;5.90;49.03;96793.69;5034059;28;20478;-78
2022/03/18 09:23:26;;;;;;;12.77;6.70;;;;;;;5.69;50.44;96794.41;5051101;28;20442;-77
2022/03/18 09:25:54;;;;;;;9.90;7.20;;;;;;;5.65;50.10;96785.84;5053198;28;20434;-80
2022/03/18 09:28:21;;;;;;;9.60;7.03;;;;;;;5.55;50.17;96794.91;5052953;28;20437;-79
2022/03/18 09:30:49;;;;;;;7.23;6.47;;;;;;;5.33;51.01;96794.75;5015678;28;20453;-79
2022/03/18 09:33:16;;;;;;;10.53;7.67;;;;;;;4.97;51.73;96789.88;5053111;28;20521;-79
2022/03/18 09:35:44;;;;;;;11.17;7.57;;;;;;;4.83;52.53;96789.47;5053941;28;20480;-77
2022/03/18 09:38:11;;;;;;;8.37;7.43;;;;;;;5.15;53.00;96788.41;5053627;28;20499;-79
2022/03/18 09:40:39;;;;;;;12.97;7.40;;;;;;;5.54;52.68;96790.59;5053353;28;20434;-78
2022/03/18 09:43:07;;;;;;;8.97;7.00;;;;;;;5.37;49.31;96798.97;5035602;28;20457;-79
2022/03/18 09:45:37;;;;;;;7.57;6.00;;;;;;;5.36;49.25;96788.59;5053531;28;20770;-78
2022/03/18 09:48:07;;;;;;;10.07;8.20;;;;;;;5.47;49.65;96781.25;5053221;28;20445;-78
2022/03/18 09:50:35;;;;;;;8.33;7.20;;;;;;;5.73;50.37;96778.59;5053214;28;20445;-78
2022/03/18 09:53:02;;;;;;;7.20;5.33;;;;;;;5.47;49.48;96776.06;5053509;28;20433;-79
2022/03/18 09:55:31;;;;;;;15.20;9.90;;;;;;;5.52;50.07;96795.00;5053519;28;20438;-78
2022/03/18 10:04:53;;;;;;;7.30;5.97;;;;;;;5.36;46.10;96779.03;5052496;28;20441;-79
2022/03/18 10:07:21;;;;;;;10.23;7.80;;;;;;;5.83;48.05;96773.94;5053426;28;20437;-79
2022/03/18 10:09:48;;;;;;;8.70;7.77;;;;;;;5.83;49.31;96761.75;5053437;28;20829;-79
2022/03/18 10:12:30;;;;;;;9.97;8.87;;;;;;;6.16;50.98;96761.47;5053036;28;20426;-79
2022/03/18 10:15:05;;;;;;;19.30;7.70;;;;;;;5.51;47.33;96773.31;5053409;28;20862;-78
2022/03/18 10:17:42;;;;;;;10.50;7.40;;;;;;;5.64;48.40;96785.91;5052980;28;20429;-79
2022/03/18 10:20:24;;;;;;;7.63;6.53;;;;;;;5.57;46.95;96777.47;5053382;28;20450;-79
2022/03/18 10:22:51;;;;;;;8.03;6.77;;;;;;;5.53;44.44;96781.09;5053062;28;20482;-79
2022/03/18 10:25:37;;;;;;;11.17;7.03;;;;;;;5.56;47.06;96775.75;5053554;28;20464;-78
2022/03/18 10:28:05;;;;;;;5.90;5.40;;;;;;;4.90;47.79;96782.31;5052869;28;20437;-79
2022/03/18 10:30:32;;;;;;;12.53;7.27;;;;;;;4.58;50.77;96778.13;5053452;28;20426;-79
2022/03/18 10:33:00;;;;;;;8.10;6.40;;;;;;;4.80;52.41;96770.50;5052717;28;20944;-79
2022/03/18 10:38:27;;;;;;;9.67;7.53;;;;;;;5.49;49.96;96772.53;5051841;28;20985;-79
2022/03/18 10:40:55;;;;;;;12.80;8.03;;;;;;;5.26;51.83;96773.31;5051718;28;20452;-79
2022/03/18 10:43:22;;;;;;;8.83;6.60;;;;;;;5.13;49.93;96766.78;5052355;28;20441;-79
2022/03/18 10:46:04;;;;;;;10.13;7.00;;;;;;;4.87;50.36;96775.44;5051770;28;20445;-79
2022/03/18 10:48:31;;;;;;;14.10;7.70;;;;;;;4.88;52.87;96769.34;5051605;28;20821;-80
2022/03/18 10:51:07;;;;;;;9.53;7.67;;;;;;;5.09;51.82;96769.56;5051520;28;20978;-79
2022/03/18 10:53:34;;;;;;;8.90;7.40;;;;;;;5.25;49.41;96763.81;5054006;28;20429;-80
2022/03/18 10:56:03;;;;;;;11.03;8.20;;;;;;;5.33;49.85;96763.53;5055379;28;20449;-79
2022/03/18 10:58:32;;;;;;;8.73;7.53;;;;;;;5.56;47.11;96758.38;5055333;28;20454;-80
2022/03/18 11:01:01;;;;;;;7.87;6.50;;;;;;;5.57;47.23;96762.69;5055042;28;20957;-79
2022/03/18 11:03:29;;;;;;;6.07;5.47;;;;;;;5.25;45.79;96755.16;5055482;28;20959;-80
2022/03/18 11:05:59;;;;;;;8.97;7.40;;;;;;;5.14;46.47;96746.81;5054991;28;20461;-80
2022/03/18 11:08:35;;;;;;;11.17;7.03;;;;;;;5.21;46.87;96753.56;5037245;28;20532;-79
2022/03/18 11:11:11;;;;;;;10.73;6.93;;;;;;;4.97;46.47;96756.06;5055549;28;20526;-80
2022/03/18 11:13:48;;;;;;;9.13;7.20;;;;;;;5.08;47.22;96740.09;5055867;28;20444;-79
2022/03/18 11:16:18;;;;;;;9.77;7.67;;;;;;;5.07;47.71;96740.13;5054939;28;20453;-79
2022/03/18 11:18:46;;;;;;;10.63;7.60;;;;;;;5.39;47.42;96745.09;5036518;28;20458;-79
2022/03/18 11:21:13;;;;;;;8.50;6.47;;;;;;;5.37;46.34;96746.91;5055066;28;20459;-78
2022/03/18 11:23:44;;;;;;;9.30;7.50;;;;;;;5.18;46.56;96745.81;5054983;28;20453;-80
2022/03/18 11:26:14;;;;;;;13.83;7.90;;;;;;;5.25;47.83;96749.94;5055076;28;20477;-79
2022/03/18 11:28:41;;;;;;;12.47;7.73;;;;;;;4.79;46.84;96755.81;5055028;28;20452;-80
2022/03/18 11:31:10;;;;;;;13.17;8.20;;;;;;;4.95;46.64;96757.00;5055054;28;20445;-79
2022/03/18 11:33:38;;;;;;;8.97;6.60;;;;;;;4.84;46.88;96748.69;5054817;28;20851;-80
2022/03/18 11:36:13;;;;;;;11.07;6.90;;;;;;;4.75;47.27;96744.66;5055143;28;20488;-80
2022/03/18 11:39:02;;;;;;;11.60;8.00;;;;;;;4.99;49.24;96743.00;5055053;28;20453;-78
2022/03/18 11:41:52;;;;;;;10.27;7.70;;;;;;;5.17;48.65;96738.91;5054656;28;21069;-80
2022/03/18 11:44:54;;;;;;;11.63;7.90;;;;;;;5.39;46.31;96739.03;5054920;28;20446;-80
2022/03/18 11:47:48;;;;;;;9.43;6.37;;;;;;;5.25;47.13;96742.13;5055143;28;20491;-80
2022/03/18 11:50:48;;;;;;;10.30;7.10;;;;;;;5.12;47.08;96741.69;4993300;28;20448;-79
2022/03/18 11:53:47;;;;;;;7.93;6.17;;;;;;;4.83;47.19;96742.63;4992571;28;20456;-78
2022/03/18 11:56:19;;;;;;;25.10;7.00;;;;;;;5.11;46.46;96741.72;4992997;28;20494;-82
2022/03/18 11:58:46;;;;;;;8.47;7.03;;;;;;;5.04;45.28;96735.03;4992749;28;20467;-79
2022/03/18 12:01:41;;;;;;;7.63;5.80;;;;;;;5.13;44.84;96725.16;4992407;28;20963;-79
2022/03/18 12:04:09;;;;;;;7.60;5.97;;;;;;;5.41;43.63;96708.59;4896531;29;21028;-79
2022/03/18 12:07:14;;;;;;;13.00;5.70;;;;;;;5.59;44.86;96728.78;4896721;29;20449;-80
2022/03/18 12:09:57;;;;;;;8.43;5.90;;;;;;;5.23;45.10;96726.56;4896694;29;20451;-77
2022/03/18 12:12:30;;;;;;;10.33;6.90;;;;;;;5.21;44.40;96712.75;4896926;29;20831;-77
2022/03/18 12:15:00;;;;;;;8.07;6.20;;;;;;;5.58;43.70;96720.13;4897011;29;20460;-76
2022/03/18 12:17:26;;;;;;;10.43;6.43;;;;;;;5.64;44.87;96720.81;4896537;29;20457;-77
2022/03/18 12:19:55;;;;;;;9.93;6.67;;;;;;;5.83;45.49;96717.47;4896701;29;20460;-77
2022/03/18 12:22:23;;;;;;;12.30;8.17;;;;;;;5.87;43.44;96707.78;4896794;29;20485;-79
2022/03/18 12:24:52;;;;;;;7.67;6.90;;;;;;;5.64;43.88;96713.00;4896831;28;20452;-78
2022/03/18 12:27:21;;;;;;;8.70;7.10;;;;;;;5.26;43.72;96717.81;4973709;28;20564;-78
2022/03/18 12:29:51;;;;;;;8.17;6.90;;;;;;;5.01;43.67;96717.78;4973158;28;20959;-76
2022/03/18 12:32:18;;;;;;;6.67;5.20;;;;;;;4.89;42.00;96716.44;4973305;28;20465;-79
2022/03/18 12:34:50;;;;;;;8.50;6.90;;;;;;;4.86;44.10;96707.88;4940477;28;20504;-79
2022/03/18 12:37:20;;;;;;;16.60;8.57;;;;;;;5.01;44.49;96717.78;4972738;28;20477;-79
2022/03/18 12:39:49;;;;;;;7.83;6.33;;;;;;;5.11;43.59;96707.91;4973094;28;20911;-79